Idleyld Park, Oregon
Current Conditions -  °F | °C
As of 4:13 PM on Saturday 22 Nov 2014 (Local Time) from KRBG Reporting Station
Heavy Rain Heavy Rain  
Wind Chill: 49°   Ceiling: 4100
Heat Index: 49°   Visibility: 1.7mi
Dew Point: 42°   Wind: 0mph
Humidity: 77%   Direction: NA
Pressure: 30.17"   Gusts: NA
Location:  43.32°N, 123.03°W
Report Text: KRBG 230013Z AUTO 00000KT 1 3/4SM +RA FEW034 BKN041 BKN060 09/06 A3017 RMK AO2 RAB06 P0003 T00940056 TSNO $
Loading
Personal Weather Stations






























Interactive Weather Map New forecast layout! Learn more

10-Day Weather Forecast

Advertisements
Track Severe Weather on mobile